createdAt,value
2018-01-28T00:00:43.854Z,44.13
2018-01-28T00:03:13.745Z,42.37
2018-01-28T00:05:42.858Z,44.40
2018-01-28T00:08:12.725Z,40.43
2018-01-28T00:10:41.871Z,44.40
2018-01-28T00:13:10.947Z,42.80
2018-01-28T00:15:40.066Z,42.70
2018-01-28T00:18:09.171Z,41.30
2018-01-28T00:20:38.304Z,40.67
2018-01-28T00:23:07.385Z,41.03
2018-01-28T00:25:36.518Z,43.63
2018-01-28T00:28:06.443Z,41.13
2018-01-28T00:30:35.533Z,40.23
2018-01-28T00:33:04.619Z,42.00
2018-01-28T00:35:33.721Z,41.53
2018-01-28T00:38:02.839Z,43.07
2018-01-28T00:40:32.701Z,39.90
2018-01-28T00:43:01.821Z,41.33
2018-01-28T00:45:30.893Z,40.63
2018-01-28T00:48:00.038Z,39.93
2018-01-28T00:50:29.118Z,40.40
2018-01-28T00:52:58.308Z,38.80
2018-01-28T00:55:27.381Z,39.23
2018-01-28T00:57:56.474Z,40.10
2018-01-28T01:00:26.358Z,39.40
2018-01-28T01:02:55.463Z,39.53
2018-01-28T01:05:24.587Z,38.70
2018-01-28T01:07:53.686Z,37.77
2018-01-28T01:10:22.809Z,38.63
2018-01-28T01:12:51.913Z,38.40
2018-01-28T01:15:21.043Z,38.97
2018-01-28T01:17:50.133Z,38.53
2018-01-28T01:20:19.225Z,36.53
2018-01-28T01:22:48.355Z,34.80
2018-01-28T01:25:17.474Z,35.83
2018-01-28T01:27:46.572Z,36.93
2018-01-28T01:30:15.676Z,33.77
2018-01-28T01:32:44.778Z,36.07
2018-01-28T01:35:13.885Z,33.23
2018-01-28T01:37:43.768Z,32.30
2018-01-28T01:40:12.870Z,33.87
2018-01-28T01:42:41.965Z,32.50
2018-01-28T01:45:11.837Z,34.37
2018-01-28T01:47:40.940Z,32.23
2018-01-28T01:50:10.042Z,30.00
2018-01-28T01:52:39.148Z,33.10
2018-01-28T01:55:08.254Z,33.47
2018-01-28T01:57:37.376Z,32.70
2018-01-28T02:00:06.499Z,32.20
2018-01-28T02:02:35.609Z,31.73
2018-01-28T02:05:04.700Z,33.13
2018-01-28T02:07:33.806Z,29.87
2018-01-28T02:10:02.890Z,33.07
2018-01-28T02:12:32.013Z,29.10
2018-01-28T02:15:01.126Z,29.43
2018-01-28T02:17:31.010Z,30.13
2018-01-28T02:20:00.877Z,28.77
2018-01-28T02:22:29.981Z,26.10
2018-01-28T02:24:59.102Z,27.10
2018-01-28T02:27:28.380Z,28.80
2018-01-28T02:29:58.261Z,30.20
2018-01-28T02:32:27.353Z,28.10
2018-01-28T02:34:56.478Z,28.20
2018-01-28T02:37:25.571Z,27.27
2018-01-28T02:39:54.671Z,29.03
2018-01-28T02:42:23.774Z,30.93
2018-01-28T02:44:52.907Z,28.60
2018-01-28T02:47:22.010Z,30.63
2018-01-28T02:49:51.885Z,29.00
2018-01-28T02:52:21.754Z,27.97
2018-01-28T02:54:50.879Z,28.40
2018-01-28T02:57:19.993Z,27.53
2018-01-28T02:59:49.110Z,27.23
2018-01-28T03:02:18.212Z,26.80
2018-01-28T03:04:47.310Z,25.27
2018-01-28T03:07:16.429Z,24.70
2018-01-28T03:09:45.533Z,24.27
2018-01-28T03:12:14.618Z,24.10
2018-01-28T03:14:43.713Z,25.40
2018-01-28T03:17:12.850Z,23.50
2018-01-28T03:19:41.972Z,22.57
2018-01-28T03:22:11.057Z,23.87
2018-01-28T03:24:40.996Z,24.53
2018-01-28T03:27:10.817Z,22.53
2018-01-28T03:29:39.925Z,23.17
2018-01-28T03:32:09.229Z,24.00
2018-01-28T03:34:38.354Z,19.87
2018-01-28T03:37:07.454Z,21.47
2018-01-28T03:39:36.560Z,20.87
2018-01-28T03:42:05.661Z,20.80
2018-01-28T03:44:34.761Z,20.53
2018-01-28T03:47:03.873Z,19.93
2018-01-28T03:49:32.981Z,17.97
2018-01-28T03:52:02.077Z,19.33
2018-01-28T03:54:31.209Z,20.30
2018-01-28T03:57:00.293Z,18.60
2018-01-28T03:59:29.413Z,18.53
2018-01-28T04:01:58.497Z,19.13
2018-01-28T04:04:28.381Z,16.70
2018-01-28T04:06:57.499Z,17.60
2018-01-28T04:09:26.598Z,16.23
2018-01-28T04:11:55.749Z,16.77
2018-01-28T04:14:25.610Z,15.13
2018-01-28T04:16:54.733Z,15.43
2018-01-28T04:19:23.851Z,13.10
2018-01-28T04:21:52.962Z,13.93
2018-01-28T04:24:22.814Z,12.27
2018-01-28T04:26:52.719Z,13.30
2018-01-28T04:29:21.803Z,12.37
2018-01-28T04:31:50.921Z,13.20
2018-01-28T04:34:20.014Z,13.37
2018-01-28T04:36:49.169Z,13.00
2018-01-28T04:39:18.264Z,12.80
2018-01-28T04:41:47.361Z,12.93
2018-01-28T04:44:16.498Z,13.70
2018-01-28T04:46:45.577Z,13.10
2018-01-28T04:49:14.694Z,12.07
2018-01-28T04:51:43.794Z,12.80
2018-01-28T04:54:12.902Z,13.00
2018-01-28T04:56:42.774Z,11.90
2018-01-28T04:59:12.661Z,12.43
2018-01-28T05:01:41.743Z,14.07
2018-01-28T05:04:10.839Z,12.30
2018-01-28T05:06:39.952Z,13.20
2018-01-28T05:09:09.054Z,11.97
2018-01-28T05:11:38.161Z,10.80
2018-01-28T05:14:07.278Z,12.73
2018-01-28T05:16:36.371Z,12.13
2018-01-28T05:19:05.493Z,11.13
2018-01-28T05:21:34.601Z,11.10
2018-01-28T05:24:03.706Z,11.57
2018-01-28T05:26:32.801Z,10.27
2018-01-28T05:29:02.679Z,11.00
2018-01-28T05:31:31.776Z,11.13
2018-01-28T05:34:00.907Z,11.47
2018-01-28T05:36:29.993Z,10.53
2018-01-28T05:38:59.090Z,10.10
2018-01-28T05:41:28.198Z,10.23
2018-01-28T05:43:57.298Z,10.40
2018-01-28T05:46:26.402Z,9.60
2018-01-28T05:48:56.262Z,10.30
2018-01-28T05:51:25.403Z,9.30
2018-01-28T05:53:55.257Z,10.20
2018-01-28T05:56:24.401Z,9.20
2018-01-28T05:58:54.254Z,9.60
2018-01-28T06:01:23.347Z,9.10
2018-01-28T06:03:52.465Z,9.67
2018-01-28T06:06:21.611Z,9.23
2018-01-28T06:08:51.488Z,9.20
2018-01-28T06:11:20.598Z,8.93
2018-01-28T06:13:49.703Z,8.40
2018-01-28T06:16:18.787Z,9.90
2018-01-28T06:18:47.893Z,7.70
2018-01-28T06:21:17.772Z,9.70
2018-01-28T06:23:46.856Z,8.87
2018-01-28T06:26:15.970Z,8.40
2018-01-28T06:28:45.069Z,7.33
2018-01-28T06:31:14.181Z,8.70
2018-01-28T06:33:43.261Z,8.50
2018-01-28T06:36:12.378Z,8.23
2018-01-28T06:38:41.507Z,7.70
2018-01-28T06:41:10.621Z,8.00
2018-01-28T06:43:39.721Z,7.60
2018-01-28T06:46:08.823Z,8.40
2018-01-28T06:48:37.921Z,9.27
2018-01-28T06:51:07.041Z,7.67
2018-01-28T06:53:36.163Z,8.13
2018-01-28T06:56:05.262Z,8.47
2018-01-28T06:58:34.338Z,8.57
2018-01-28T07:01:03.453Z,8.93
2018-01-28T07:03:32.558Z,8.13
2018-01-28T07:06:01.692Z,7.70
2018-01-28T07:08:30.805Z,7.70
2018-01-28T07:10:59.889Z,8.33
2018-01-28T07:13:28.999Z,8.10
2018-01-28T07:15:58.101Z,8.67
2018-01-28T07:18:27.244Z,7.73
2018-01-28T07:20:56.334Z,8.00
2018-01-28T07:23:25.456Z,9.27
2018-01-28T07:25:54.608Z,8.77
2018-01-28T07:28:24.472Z,8.37
2018-01-28T07:30:53.564Z,7.80
2018-01-28T07:33:22.673Z,7.87
2018-01-28T07:35:51.776Z,7.53
2018-01-28T07:38:21.658Z,7.83
2018-01-28T07:40:50.762Z,8.53
2018-01-28T07:43:19.889Z,6.57
2018-01-28T07:45:48.978Z,7.20
2018-01-28T07:48:18.080Z,6.70
2018-01-28T07:50:48.117Z,7.93
2018-01-28T07:53:17.199Z,7.47
2018-01-28T07:55:46.438Z,7.50
2018-01-28T07:58:15.523Z,7.10
2018-01-28T08:00:44.634Z,7.07
2018-01-28T08:03:13.745Z,6.53
2018-01-28T08:05:42.867Z,8.20
2018-01-28T08:08:13.029Z,6.57
2018-01-28T08:11:01.927Z,7.33
2018-01-28T08:13:31.785Z,7.53
2018-01-28T08:16:00.873Z,7.03
2018-01-28T08:18:29.986Z,7.10
2018-01-28T08:20:59.842Z,7.70
2018-01-28T08:23:28.946Z,7.80
2018-01-28T08:25:58.048Z,8.47
2018-01-28T08:28:32.789Z,8.80
2018-01-28T08:31:01.894Z,8.13
2018-01-28T08:33:31.013Z,9.03
2018-01-28T08:36:00.103Z,8.07
2018-01-28T08:38:29.980Z,8.37
2018-01-28T08:40:59.082Z,7.80
2018-01-28T08:43:28.183Z,9.77
2018-01-28T08:45:57.286Z,8.70
2018-01-28T08:48:26.389Z,8.37
2018-01-28T08:50:55.517Z,9.53
2018-01-28T08:53:24.626Z,9.00
2018-01-28T08:55:53.745Z,8.40
2018-01-28T08:58:22.868Z,8.27
2018-01-28T09:00:52.017Z,7.53
2018-01-28T09:03:21.892Z,8.70
2018-01-28T09:05:51.024Z,9.07
2018-01-28T09:08:20.131Z,8.83
2018-01-28T09:10:49.236Z,7.47
2018-01-28T09:13:18.338Z,8.50
2018-01-28T09:15:47.476Z,8.30
2018-01-28T09:18:16.573Z,9.37
2018-01-28T09:20:45.673Z,8.53
2018-01-28T09:23:14.801Z,8.47
2018-01-28T09:25:43.895Z,8.60
2018-01-28T09:28:13.024Z,9.43
2018-01-28T09:30:42.897Z,10.13
2018-01-28T09:33:12.750Z,9.40
2018-01-28T09:35:41.856Z,9.60
2018-01-28T09:38:10.979Z,8.67
2018-01-28T09:40:40.078Z,10.50
2018-01-28T09:43:09.225Z,9.60
2018-01-28T09:45:38.350Z,9.07
2018-01-28T09:48:07.475Z,9.47
2018-01-28T09:50:36.564Z,9.13
2018-01-28T09:53:05.671Z,10.07
2018-01-28T09:55:34.792Z,8.80
2018-01-28T09:58:03.923Z,9.27
2018-01-28T10:00:33.797Z,8.63
2018-01-28T10:03:02.928Z,8.83
2018-01-28T10:05:32.042Z,8.03
2018-01-28T10:08:01.138Z,8.73
2018-01-28T10:10:30.271Z,8.33
2018-01-28T10:12:59.392Z,7.73
2018-01-28T10:15:28.500Z,7.47
2018-01-28T10:17:58.371Z,7.50
2018-01-28T10:20:27.460Z,8.10
2018-01-28T10:22:57.376Z,8.17
2018-01-28T10:25:27.266Z,7.63
2018-01-28T10:27:56.397Z,7.20
2018-01-28T10:30:26.254Z,7.80
2018-01-28T10:32:55.378Z,7.87
2018-01-28T10:35:24.485Z,8.40
2018-01-28T10:37:53.672Z,9.50
2018-01-28T10:40:22.775Z,8.80
2018-01-28T10:42:52.634Z,8.70
2018-01-28T10:45:21.796Z,9.40
2018-01-28T10:47:50.915Z,13.70
2018-01-28T10:50:20.796Z,15.97
2018-01-28T10:52:51.478Z,12.30
2018-01-28T10:55:21.434Z,9.63
2018-01-28T10:57:50.554Z,11.47
2018-01-28T11:00:19.675Z,12.67
2018-01-28T11:02:48.769Z,10.03
2018-01-28T11:05:17.892Z,12.30
2018-01-28T11:07:47.000Z,9.57
2018-01-28T11:10:16.131Z,10.93
2018-01-28T11:12:45.243Z,11.27
2018-01-28T11:15:14.394Z,9.67
2018-01-28T11:17:43.492Z,8.87
2018-01-28T11:20:13.408Z,8.97
2018-01-28T11:22:42.593Z,10.43
2018-01-28T11:25:11.742Z,9.50
2018-01-28T11:27:41.604Z,14.00
2018-01-28T11:30:10.734Z,14.47
2018-01-28T11:32:39.869Z,9.00
2018-01-28T11:35:08.998Z,10.20
2018-01-28T11:37:38.874Z,8.80
2018-01-28T11:40:07.985Z,10.30
2018-01-28T11:42:37.134Z,9.83
2018-01-28T11:45:06.999Z,8.60
2018-01-28T11:47:36.133Z,8.93
2018-01-28T11:50:05.236Z,8.10
2018-01-28T11:52:34.332Z,9.27
2018-01-28T11:55:03.454Z,9.90
2018-01-28T11:57:32.591Z,10.10
2018-01-28T12:00:02.568Z,11.30
2018-01-28T12:02:31.701Z,9.67
2018-01-28T12:05:00.810Z,9.53
2018-01-28T12:07:29.951Z,11.07
2018-01-28T12:09:59.031Z,9.17
2018-01-28T12:12:28.153Z,10.93
2018-01-28T12:14:57.263Z,9.93
2018-01-28T12:17:26.370Z,10.20
2018-01-28T12:19:55.506Z,9.20
2018-01-28T12:22:25.389Z,10.20
2018-01-28T12:24:55.288Z,10.17
2018-01-28T12:27:24.382Z,9.70
2018-01-28T12:29:53.505Z,9.73
2018-01-28T12:32:22.665Z,9.87
2018-01-28T12:34:51.767Z,9.47
2018-01-28T12:37:20.877Z,11.17
2018-01-28T12:39:49.998Z,10.50
2018-01-28T12:42:19.104Z,10.70
2018-01-28T12:44:48.984Z,9.80
2018-01-28T12:47:18.146Z,10.23
2018-01-28T12:49:48.130Z,11.43
2018-01-28T12:52:17.246Z,11.63
2018-01-28T12:54:46.392Z,10.07
2018-01-28T12:57:16.290Z,10.33
2018-01-28T12:59:45.404Z,10.47
2018-01-28T13:02:14.503Z,10.07
2018-01-28T13:04:43.627Z,10.90
2018-01-28T13:07:12.747Z,10.20
2018-01-28T13:09:42.615Z,10.30
2018-01-28T13:12:11.772Z,10.50
2018-01-28T13:14:40.860Z,9.10
2018-01-28T13:17:10.005Z,10.00
2018-01-28T13:19:39.102Z,9.50
2018-01-28T13:22:08.243Z,9.97
2018-01-28T13:24:38.162Z,10.13
2018-01-28T13:27:08.040Z,9.57
2018-01-28T13:29:37.903Z,8.87
2018-01-28T13:32:07.772Z,8.70
2018-01-28T13:34:36.888Z,9.60
2018-01-28T13:37:05.989Z,8.90
2018-01-28T13:39:35.119Z,8.67
2018-01-28T13:42:04.262Z,8.80
2018-01-28T13:44:33.376Z,6.80
2018-01-28T13:47:03.271Z,8.30
2018-01-28T13:49:32.385Z,8.50
2018-01-28T13:52:01.476Z,7.30
2018-01-28T13:54:30.610Z,6.67
2018-01-28T13:56:59.779Z,6.83
2018-01-28T13:59:28.882Z,5.70
2018-01-28T14:01:57.989Z,5.90
2018-01-28T14:04:27.120Z,5.97
2018-01-28T14:06:56.215Z,5.57
2018-01-28T14:09:25.310Z,5.30
2018-01-28T14:11:54.427Z,4.73
2018-01-28T14:14:23.530Z,4.70
2018-01-28T14:16:52.632Z,5.17
2018-01-28T14:19:21.727Z,4.87
2018-01-28T14:21:51.616Z,4.60
2018-01-28T14:24:20.702Z,5.17
2018-01-28T14:26:49.842Z,5.40
2018-01-28T14:29:18.930Z,5.17
2018-01-28T14:31:48.544Z,5.37
2018-01-28T14:34:17.671Z,5.40
2018-01-28T14:36:46.838Z,4.80
2018-01-28T14:39:15.954Z,5.83
2018-01-28T14:41:45.066Z,5.80
2018-01-28T14:44:14.197Z,5.10
2018-01-28T14:46:43.285Z,5.77
2018-01-28T14:49:12.409Z,5.57
2018-01-28T14:51:42.630Z,5.37
2018-01-28T14:54:11.730Z,5.17
2018-01-28T14:56:40.867Z,5.10
2018-01-28T14:59:09.951Z,4.80
2018-01-28T15:01:39.074Z,5.00
2018-01-28T15:04:08.221Z,5.20
2018-01-28T15:06:37.384Z,5.40
2018-01-28T15:09:06.516Z,6.13
2018-01-28T15:11:35.636Z,5.37
2018-01-28T15:14:05.551Z,6.30
2018-01-28T15:16:34.655Z,6.50
2018-01-28T15:19:03.781Z,7.20
2018-01-28T15:21:32.877Z,6.10
2018-01-28T15:24:02.764Z,6.20
2018-01-28T15:26:31.912Z,6.10
2018-01-28T15:29:01.024Z,6.20
2018-01-28T15:31:30.195Z,5.47
2018-01-28T15:33:59.285Z,6.07
2018-01-28T15:36:29.168Z,6.23
2018-01-28T15:38:58.262Z,8.43
2018-01-28T15:41:28.174Z,7.40
2018-01-28T15:43:57.263Z,8.50
2018-01-28T15:46:26.389Z,7.13
2018-01-28T15:48:55.483Z,8.13
2018-01-28T15:51:24.609Z,8.57
2018-01-28T15:53:53.715Z,9.23
2018-01-28T15:56:22.839Z,7.87
2018-01-28T15:58:51.926Z,7.43
2018-01-28T16:01:21.038Z,6.83
2018-01-28T16:03:50.149Z,6.73
2018-01-28T16:06:19.258Z,6.53
2018-01-28T16:08:48.391Z,6.17
2018-01-28T16:11:17.489Z,5.90
2018-01-28T16:13:46.621Z,6.00
2018-01-28T16:16:15.750Z,6.17
2018-01-28T16:18:44.876Z,5.47
2018-01-28T16:21:14.786Z,7.20
2018-01-28T16:23:43.891Z,7.17
2018-01-28T16:26:12.991Z,6.40
2018-01-28T16:28:42.114Z,6.17
2018-01-28T16:31:11.236Z,6.63
2018-01-28T16:33:41.097Z,5.73
2018-01-28T16:36:10.222Z,5.27
2018-01-28T16:38:39.316Z,5.83
2018-01-28T16:41:08.466Z,5.30
2018-01-28T16:43:37.581Z,5.30
2018-01-28T16:46:06.709Z,5.00
2018-01-28T16:48:36.600Z,5.20
2018-01-28T16:51:05.753Z,4.67
2018-01-28T16:53:34.861Z,4.70
2018-01-28T16:56:04.001Z,4.97
2018-01-28T16:58:33.119Z,4.27
2018-01-28T17:01:02.224Z,4.00
2018-01-28T17:03:31.388Z,3.70
2018-01-28T17:06:01.286Z,3.83
2018-01-28T17:08:30.440Z,4.30
2018-01-28T17:11:00.321Z,4.80
2018-01-28T17:13:29.449Z,3.60
2018-01-28T17:15:58.546Z,3.50
2018-01-28T17:18:27.678Z,3.60
2018-01-28T17:20:57.542Z,4.97
2018-01-28T17:23:26.666Z,5.40
2018-01-28T17:25:55.763Z,3.03
2018-01-28T17:28:24.864Z,2.33
2018-01-28T17:30:53.966Z,2.57
2018-01-28T17:33:23.086Z,2.67
2018-01-28T17:35:52.203Z,3.10
2018-01-28T17:38:21.371Z,3.90
2018-01-28T17:40:51.242Z,2.83
2018-01-28T17:43:20.353Z,2.67
2018-01-28T17:45:49.490Z,2.80
2018-01-28T17:48:18.598Z,2.60
2018-01-28T17:50:47.750Z,2.77
2018-01-28T17:53:16.842Z,3.10
2018-01-28T17:55:45.999Z,2.50
2018-01-28T17:58:15.090Z,3.87
2018-01-28T18:00:44.214Z,3.50
2018-01-28T18:03:13.334Z,3.53
2018-01-28T18:05:42.477Z,3.30
2018-01-28T18:08:12.361Z,3.27
2018-01-28T18:10:41.488Z,3.40
2018-01-28T18:13:10.584Z,2.90
2018-01-28T18:15:39.687Z,3.47
2018-01-28T18:18:08.841Z,2.67
2018-01-28T18:20:37.904Z,2.47
2018-01-28T18:23:07.010Z,3.03
2018-01-28T18:25:36.124Z,2.37
2018-01-28T18:28:06.028Z,2.07
2018-01-28T18:30:35.131Z,2.50
2018-01-28T18:33:04.252Z,2.83
2018-01-28T18:35:33.413Z,2.97
2018-01-28T18:38:02.524Z,2.47
2018-01-28T18:40:31.663Z,2.00
2018-01-28T18:43:00.778Z,2.30
2018-01-28T18:45:29.882Z,2.30
2018-01-28T18:47:58.996Z,1.77
2018-01-28T18:50:28.076Z,2.47
2018-01-28T18:52:58.003Z,2.90
2018-01-28T18:55:27.129Z,2.93
2018-01-28T18:57:57.063Z,3.10
2018-01-28T19:00:26.201Z,2.33
2018-01-28T19:02:55.382Z,2.60
2018-01-28T19:05:24.458Z,2.10
2018-01-28T19:07:54.344Z,3.10
2018-01-28T19:10:23.462Z,2.00
2018-01-28T19:12:52.580Z,2.37
2018-01-28T19:15:21.721Z,2.43
2018-01-28T19:17:50.841Z,2.20
2018-01-28T19:20:20.792Z,2.20
2018-01-28T19:22:49.926Z,3.00
2018-01-28T19:25:19.112Z,2.47
2018-01-28T19:27:48.265Z,2.47
2018-01-28T19:30:17.384Z,2.47
2018-01-28T19:32:46.528Z,3.30
2018-01-28T19:35:16.405Z,2.70
2018-01-28T19:37:45.514Z,3.03
2018-01-28T19:40:14.673Z,3.07
2018-01-28T19:42:43.770Z,2.47
2018-01-28T19:45:13.642Z,2.33
2018-01-28T19:47:42.765Z,2.70
2018-01-28T19:50:11.919Z,2.10
2018-01-28T19:52:41.797Z,2.10
2018-01-28T19:55:10.967Z,2.10
2018-01-28T19:57:40.840Z,2.10
2018-01-28T20:00:09.987Z,2.30
2018-01-28T20:02:39.121Z,2.30
2018-01-28T20:05:08.228Z,2.83
2018-01-28T20:07:37.356Z,2.63
2018-01-28T20:10:06.501Z,2.30
2018-01-28T20:12:35.636Z,2.37
2018-01-28T20:15:05.518Z,2.40
2018-01-28T20:17:34.643Z,2.60
2018-01-28T20:20:03.737Z,2.10
2018-01-28T20:22:32.882Z,2.33
2018-01-28T20:25:02.798Z,2.50
2018-01-28T20:27:31.919Z,2.40
2018-01-28T20:30:01.775Z,2.17
2018-01-28T20:32:30.894Z,2.80
2018-01-28T20:35:00.041Z,2.30
2018-01-28T20:37:29.169Z,2.33
2018-01-28T20:39:59.068Z,2.30
2018-01-28T20:42:28.200Z,2.10
2018-01-28T20:44:57.334Z,2.00
2018-01-28T20:47:27.224Z,3.07
2018-01-28T20:49:56.343Z,2.50
2018-01-28T20:52:26.208Z,2.10
2018-01-28T20:54:55.363Z,2.30
2018-01-28T20:57:24.480Z,2.60
2018-01-28T20:59:53.612Z,2.30
2018-01-28T21:02:23.471Z,2.10
2018-01-28T21:04:52.617Z,2.50
2018-01-28T21:07:21.772Z,2.30
2018-01-28T21:09:51.716Z,2.87
2018-01-28T21:12:20.816Z,2.60
2018-01-28T21:14:50.741Z,2.60
2018-01-28T21:17:19.858Z,2.73
2018-01-28T21:19:48.974Z,2.90
2018-01-28T21:22:18.071Z,2.37
2018-01-28T21:24:47.203Z,3.13
2018-01-28T21:27:16.332Z,2.13
2018-01-28T21:29:45.439Z,3.17
2018-01-28T21:32:14.577Z,2.80
2018-01-28T21:34:43.713Z,1.90
2018-01-28T21:37:12.829Z,2.40
2018-01-28T21:39:41.937Z,2.27
2018-01-28T21:42:11.054Z,3.27
2018-01-28T21:44:40.179Z,2.87
2018-01-28T21:47:09.321Z,3.27
2018-01-28T21:49:38.405Z,3.03
2018-01-28T21:52:07.563Z,2.60
2018-01-28T21:54:37.412Z,2.97
2018-01-28T21:57:06.511Z,3.03
2018-01-28T21:59:35.629Z,3.37
2018-01-28T22:02:04.735Z,2.53
2018-01-28T22:04:33.849Z,2.00
2018-01-28T22:07:02.984Z,2.50
2018-01-28T22:09:32.098Z,3.10
2018-01-28T22:12:01.232Z,2.10
2018-01-28T22:14:30.353Z,2.73
2018-01-28T22:16:59.455Z,2.00
2018-01-28T22:19:28.560Z,2.63
2018-01-28T22:21:57.669Z,2.37
2018-01-28T22:24:26.783Z,2.30
2018-01-28T22:26:56.659Z,2.53
2018-01-28T22:29:25.823Z,2.37
2018-01-28T22:31:54.918Z,2.90
2018-01-28T22:34:24.002Z,2.43
2018-01-28T22:36:53.102Z,3.43
2018-01-28T22:39:22.230Z,3.20
2018-01-28T22:41:51.319Z,2.60
2018-01-28T22:44:20.417Z,2.70
2018-01-28T22:46:49.563Z,2.53
2018-01-28T22:49:18.675Z,2.70
2018-01-28T22:51:47.769Z,2.60
2018-01-28T22:54:16.912Z,3.07
2018-01-28T22:56:46.009Z,2.90
2018-01-28T22:59:15.125Z,2.53
2018-01-28T23:01:44.216Z,2.90
2018-01-28T23:04:13.310Z,2.30
2018-01-28T23:06:42.413Z,3.20
2018-01-28T23:09:12.274Z,2.17
2018-01-28T23:11:42.142Z,2.50
2018-01-28T23:14:11.303Z,3.03
2018-01-28T23:16:40.386Z,2.50
2018-01-28T23:19:09.490Z,2.90
2018-01-28T23:21:38.602Z,2.60
2018-01-28T23:24:07.679Z,3.20
2018-01-28T23:26:36.809Z,2.20
2018-01-28T23:29:05.981Z,2.63
2018-01-28T23:31:35.091Z,2.10
2018-01-28T23:34:04.183Z,2.10
2018-01-28T23:36:33.288Z,2.60
2018-01-28T23:39:03.139Z,2.20
2018-01-28T23:41:32.251Z,1.80
2018-01-28T23:44:01.338Z,1.60
2018-01-28T23:46:30.444Z,2.33
2018-01-28T23:49:00.328Z,2.50
2018-01-28T23:51:30.171Z,2.83
2018-01-28T23:53:59.288Z,2.70
2018-01-28T23:56:28.386Z,2.27
2018-01-28T23:58:57.494Z,2.63
